createdAt,value
2023-03-16T00:00:14.154Z,98306.06
2023-03-16T00:02:47.538Z,98309.16
2023-03-16T00:05:17.948Z,98302.84
2023-03-16T00:07:48.282Z,98312.13
2023-03-16T00:10:18.872Z,98303.16
2023-03-16T00:12:49.222Z,98303.56
2023-03-16T00:15:19.717Z,98307.53
2023-03-16T00:17:52.817Z,98299.00
2023-03-16T00:20:23.228Z,98301.75
2023-03-16T00:22:53.462Z,98307.94
2023-03-16T00:25:24.468Z,98304.41
2023-03-16T00:27:54.892Z,98298.19
2023-03-16T00:30:27.590Z,98310.25
2023-03-16T00:33:02.228Z,98309.09
2023-03-16T00:35:35.119Z,98308.34
2023-03-16T00:38:09.514Z,98305.56
2023-03-16T00:40:40.458Z,98313.31
2023-03-16T00:43:10.953Z,98318.78
2023-03-16T00:45:44.857Z,98318.03
2023-03-16T00:48:18.577Z,98317.25
2023-03-16T00:50:48.836Z,98318.84
2023-03-16T00:53:19.084Z,98314.94
2023-03-16T00:55:50.708Z,98321.59
2023-03-16T00:58:21.017Z,98322.03
2023-03-16T01:00:52.051Z,98322.81
2023-03-16T01:03:25.193Z,98330.22
2023-03-16T01:05:59.965Z,98333.72
2023-03-16T01:08:30.854Z,98337.28
2023-03-16T01:11:06.752Z,98329.91
2023-03-16T01:13:37.528Z,98324.81
2023-03-16T01:16:09.155Z,98326.78
2023-03-16T01:18:42.301Z,98319.78
2023-03-16T01:21:14.709Z,98326.41
2023-03-16T01:23:45.829Z,98322.09
2023-03-16T01:26:17.834Z,98324.03
2023-03-16T01:28:50.183Z,98322.06
2023-03-16T01:31:22.833Z,98324.38
2023-03-16T01:33:55.797Z,98327.09
2023-03-16T01:36:29.875Z,98323.25
2023-03-16T01:39:05.243Z,98325.59
2023-03-16T01:41:42.862Z,98319.38
2023-03-16T01:44:17.142Z,98329.50
2023-03-16T01:46:47.476Z,98325.63
2023-03-16T01:49:25.872Z,98321.34
2023-03-16T01:52:02.409Z,98328.38
2023-03-16T01:54:38.924Z,98325.69
2023-03-16T01:57:12.842Z,98321.81
2023-03-16T01:59:49.872Z,98324.56
2023-03-16T02:02:24.549Z,98321.03
2023-03-16T02:05:05.038Z,98317.13
2023-03-16T02:07:42.480Z,98318.28
2023-03-16T02:10:16.011Z,98310.09
2023-03-16T02:12:47.439Z,98303.09
2023-03-16T02:15:19.149Z,98306.22
2023-03-16T02:17:51.277Z,98300.38
2023-03-16T02:20:37.747Z,98303.47
2023-03-16T02:23:10.499Z,98305.81
2023-03-16T02:25:47.064Z,98306.22
2023-03-16T02:28:28.957Z,98308.59
2023-03-16T02:31:02.257Z,98313.63
2023-03-16T02:33:35.877Z,98307.03
2023-03-16T02:36:08.092Z,98307.06
2023-03-16T02:38:38.708Z,98302.41
2023-03-16T02:44:14.735Z,98305.50
2023-03-16T02:46:52.550Z,98309.78
2023-03-16T02:49:28.679Z,98303.16
2023-03-16T02:52:00.014Z,98314.06
2023-03-16T02:54:31.058Z,98314.47
2023-03-16T02:57:01.472Z,98320.28
2023-03-16T02:59:33.732Z,98321.84
2023-03-16T03:02:08.429Z,98322.59
2023-03-16T03:04:40.220Z,98314.06
2023-03-16T03:07:11.152Z,98317.97
2023-03-16T03:09:58.372Z,98322.63
2023-03-16T03:12:28.948Z,98324.56
2023-03-16T03:14:59.757Z,98324.59
2023-03-16T03:17:37.559Z,98326.53
2023-03-16T03:20:15.636Z,98332.34
2023-03-16T03:22:47.783Z,98332.34
2023-03-16T03:25:20.447Z,98337.44
2023-03-16T03:27:54.658Z,98328.09
2023-03-16T03:30:29.646Z,98330.44
2023-03-16T03:33:02.863Z,98333.53
2023-03-16T03:35:33.456Z,98328.47
2023-03-16T03:38:04.207Z,98328.09
2023-03-16T03:40:34.759Z,98338.63
2023-03-16T03:43:07.437Z,98340.19
2023-03-16T03:45:42.294Z,98332.78
2023-03-16T03:48:15.293Z,98337.06
2023-03-16T03:50:45.575Z,98341.75
2023-03-16T03:53:34.943Z,98349.53
2023-03-16T03:56:18.111Z,98342.50
2023-03-16T03:58:48.432Z,98341.34
2023-03-16T04:01:26.358Z,98347.56
2023-03-16T04:03:59.320Z,98340.16
2023-03-16T04:06:30.013Z,98349.13
2023-03-16T04:09:00.540Z,98341.34
2023-03-16T04:11:31.568Z,98344.06
2023-03-16T04:14:02.363Z,98351.09
2023-03-16T04:16:34.196Z,98347.19
2023-03-16T04:19:07.326Z,98347.59
2023-03-16T04:21:37.778Z,98340.56
2023-03-16T04:24:08.986Z,98338.25
2023-03-16T04:26:39.975Z,98326.56
2023-03-16T04:29:10.551Z,98332.00
2023-03-16T04:31:43.988Z,98333.16
2023-03-16T04:34:17.451Z,98330.84
2023-03-16T04:36:48.949Z,98329.28
2023-03-16T04:39:19.547Z,98335.13
2023-03-16T04:41:51.491Z,98322.28
2023-03-16T04:44:26.157Z,98330.44
2023-03-16T04:46:57.006Z,98338.59
2023-03-16T04:49:32.670Z,98333.56
2023-03-16T04:52:03.138Z,98330.44
2023-03-16T04:54:33.771Z,98333.56
2023-03-16T04:57:05.987Z,98329.66
2023-03-16T04:59:42.992Z,98332.78
2023-03-16T05:02:25.788Z,98327.31
2023-03-16T05:04:58.881Z,98329.28
2023-03-16T05:07:29.273Z,98321.09
2023-03-16T05:10:00.226Z,98317.63
2023-03-16T05:12:30.802Z,98326.97
2023-03-16T05:15:05.362Z,98321.13
2023-03-16T05:17:46.773Z,98326.19
2023-03-16T05:20:22.077Z,98328.50
2023-03-16T05:22:56.223Z,98325.81
2023-03-16T05:25:32.982Z,98326.56
2023-03-16T05:28:08.276Z,98324.63
2023-03-16T05:31:05.345Z,98326.56
2023-03-16T05:33:42.324Z,98328.13
2023-03-16T05:36:19.650Z,98326.56
2023-03-16T05:38:55.322Z,98330.44
2023-03-16T05:41:39.922Z,98328.88
2023-03-16T05:44:24.755Z,98327.75
2023-03-16T05:47:15.501Z,98332.78
2023-03-16T05:49:50.187Z,98328.88
2023-03-16T05:52:36.803Z,98326.13
2023-03-16T05:55:17.298Z,98325.72
2023-03-16T05:57:51.284Z,98326.03
2023-03-16T06:00:25.878Z,98326.34
2023-03-16T06:03:07.054Z,98322.00
2023-03-16T06:05:39.743Z,98339.06
2023-03-16T06:08:13.203Z,98328.41
2023-03-16T06:10:46.322Z,98329.00
2023-03-16T06:13:16.798Z,98336.28
2023-03-16T06:15:47.352Z,98331.13
2023-03-16T06:18:18.375Z,98339.22
2023-03-16T06:20:50.049Z,98341.44
2023-03-16T06:23:23.908Z,98346.81
2023-03-16T06:25:55.526Z,98347.94
2023-03-16T06:28:28.997Z,98348.66
2023-03-16T06:31:01.112Z,98349.00
2023-03-16T06:33:35.781Z,98349.31
2023-03-16T06:36:07.409Z,98348.00
2023-03-16T06:38:44.978Z,98348.72
2023-03-16T06:41:38.214Z,98345.84
2023-03-16T06:44:11.809Z,98348.88
2023-03-16T06:46:49.154Z,98345.25
2023-03-16T06:49:19.621Z,98353.72
2023-03-16T06:51:50.157Z,98350.84
2023-03-16T06:54:23.147Z,98347.75
2023-03-16T06:56:53.825Z,98355.25
2023-03-16T06:59:25.331Z,98348.50
2023-03-16T07:01:55.733Z,98351.47
2023-03-16T07:04:26.126Z,98351.28
2023-03-16T07:06:57.077Z,98353.69
2023-03-16T07:09:30.155Z,98356.78
2023-03-16T07:12:00.645Z,98362.53
2023-03-16T07:14:31.595Z,98364.66
2023-03-16T07:17:02.623Z,98368.97
2023-03-16T07:19:33.354Z,98363.22
2023-03-16T07:22:05.709Z,98365.91
2023-03-16T07:24:44.284Z,98364.63
2023-03-16T07:27:15.201Z,98360.53
2023-03-16T07:29:47.297Z,98365.75
2023-03-16T07:32:17.938Z,98363.69
2023-03-16T07:34:49.729Z,98365.88
2023-03-16T07:37:25.262Z,98369.44
2023-03-16T07:40:00.779Z,98362.25
2023-03-16T07:42:31.381Z,98361.38
2023-03-16T07:45:10.140Z,98355.69
2023-03-16T07:47:40.781Z,98356.50
2023-03-16T07:50:28.475Z,98353.28
2023-03-16T07:52:59.619Z,98353.91
2023-03-16T07:55:33.128Z,98352.09
2023-03-16T07:58:05.099Z,98344.94
2023-03-16T08:00:38.072Z,98340.97
2023-03-16T08:03:08.790Z,98354.66
2023-03-16T08:05:39.637Z,98346.22
2023-03-16T08:08:16.095Z,98346.97
2023-03-16T08:10:52.735Z,98343.50
2023-03-16T08:13:27.300Z,98339.44
2023-03-16T08:15:58.924Z,98346.25
2023-03-16T08:18:38.903Z,98338.69
2023-03-16T08:21:10.821Z,98342.00
2023-03-16T08:23:41.170Z,98345.59
2023-03-16T08:26:14.264Z,98344.69
2023-03-16T08:28:47.729Z,98351.44
2023-03-16T08:31:18.934Z,98354.22
2023-03-16T08:33:56.118Z,98338.84
2023-03-16T08:36:30.571Z,98343.41
2023-03-16T08:39:06.869Z,98347.81
2023-03-16T08:41:46.080Z,98350.75
2023-03-16T08:44:33.181Z,98354.00
2023-03-16T08:47:05.301Z,98356.66
2023-03-16T08:49:38.172Z,98362.91
2023-03-16T08:52:13.787Z,98356.66
2023-03-16T08:54:59.860Z,98367.47
2023-03-16T08:57:35.826Z,98366.91
2023-03-16T09:00:13.027Z,98358.66
2023-03-16T09:02:43.751Z,98365.25
2023-03-16T09:05:16.010Z,98369.34
2023-03-16T09:07:48.896Z,98371.22
2023-03-16T09:10:20.040Z,98374.44
2023-03-16T09:12:55.584Z,98377.28
2023-03-16T09:15:25.991Z,98377.06
2023-03-16T09:17:58.169Z,98363.91
2023-03-16T09:20:30.123Z,98372.84
2023-03-16T09:23:01.715Z,98377.88
2023-03-16T09:25:32.575Z,98372.53
2023-03-16T09:28:05.733Z,98367.84
2023-03-16T09:30:36.341Z,98364.22
2023-03-16T09:33:06.686Z,98363.91
2023-03-16T09:35:37.218Z,98367.88
2023-03-16T09:38:07.755Z,98362.59
2023-03-16T09:40:40.082Z,98365.63
2023-03-16T09:43:33.024Z,98369.47
2023-03-16T09:46:12.372Z,98364.72
2023-03-16T09:48:43.933Z,98359.88
2023-03-16T09:51:24.357Z,98366.91
2023-03-16T09:54:02.494Z,98365.66
2023-03-16T09:56:39.030Z,98360.94
2023-03-16T09:59:19.125Z,98361.59
2023-03-16T10:02:24.258Z,98370.41
2023-03-16T10:05:06.475Z,98375.47
2023-03-16T10:07:48.267Z,98358.53
2023-03-16T10:10:42.482Z,98363.53
2023-03-16T10:13:27.360Z,98361.75
2023-03-16T10:16:04.993Z,98359.41
2023-03-16T10:18:42.939Z,98377.25
2023-03-16T10:21:19.776Z,98363.44
2023-03-16T10:23:51.693Z,98368.31
2023-03-16T10:26:29.750Z,98369.06
2023-03-16T10:29:01.308Z,98370.28
2023-03-16T10:31:38.497Z,98352.28
2023-03-16T10:34:10.842Z,98358.34
2023-03-16T10:36:45.293Z,98356.88
2023-03-16T10:39:17.929Z,98353.84
2023-03-16T10:41:51.477Z,98354.03
2023-03-16T10:44:28.740Z,98354.38
2023-03-16T10:47:08.412Z,98353.25
2023-03-16T10:49:44.494Z,98345.63
2023-03-16T10:52:22.543Z,98350.19
2023-03-16T10:54:57.497Z,98348.84
2023-03-16T10:57:31.308Z,98347.22
2023-03-16T11:00:16.106Z,98342.44
2023-03-16T11:02:49.694Z,98340.69
2023-03-16T11:05:32.710Z,98321.59
2023-03-16T11:08:12.342Z,98323.75
2023-03-16T11:10:55.268Z,98318.31
2023-03-16T11:13:28.189Z,98312.63
2023-03-16T11:16:03.312Z,98309.56
2023-03-16T11:18:43.632Z,98314.56
2023-03-16T11:21:19.332Z,98307.16
2023-03-16T11:23:56.238Z,98307.03
2023-03-16T11:26:33.703Z,98296.44
2023-03-16T11:29:13.448Z,98292.31
2023-03-16T11:31:50.705Z,98288.56
2023-03-16T11:34:31.454Z,98287.34
2023-03-16T11:37:15.979Z,98283.69
2023-03-16T11:39:56.509Z,98275.16
2023-03-16T11:42:36.628Z,98277.56
2023-03-16T11:45:21.414Z,98271.06
2023-03-16T11:48:28.326Z,98264.94
2023-03-16T11:51:11.646Z,98260.50
2023-03-16T11:54:05.030Z,98265.81
2023-03-16T11:56:41.431Z,98258.56
2023-03-16T12:00:01.443Z,98251.88
2023-03-16T12:03:25.008Z,98249.31
2023-03-16T12:06:17.069Z,98251.53
2023-03-16T12:09:27.334Z,98238.22
2023-03-16T12:12:05.666Z,98229.97
2023-03-16T12:14:44.282Z,98247.03
2023-03-16T12:17:21.221Z,98231.31
2023-03-16T12:19:56.813Z,98227.28
2023-03-16T12:22:37.470Z,98241.81
2023-03-16T12:25:18.209Z,98229.47
2023-03-16T12:27:54.633Z,98240.78
2023-03-16T12:30:39.553Z,98231.22
2023-03-16T12:33:19.429Z,98227.69
2023-03-16T12:35:52.736Z,98225.47
2023-03-16T12:38:41.603Z,98226.16
2023-03-16T12:41:25.821Z,98215.56
2023-03-16T12:44:12.969Z,98214.41
2023-03-16T12:46:56.359Z,98218.00
2023-03-16T12:49:28.850Z,98217.94
2023-03-16T12:52:04.479Z,98212.56
2023-03-16T12:54:38.120Z,98204.22
2023-03-16T12:57:11.600Z,98207.69
2023-03-16T12:59:47.298Z,98197.72
2023-03-16T13:02:21.305Z,98196.47
2023-03-16T13:04:59.241Z,98194.94
2023-03-16T13:07:33.527Z,98178.00
2023-03-16T13:10:14.108Z,98181.25
2023-03-16T13:12:46.312Z,98173.69
2023-03-16T13:15:31.716Z,98172.91
2023-03-16T13:18:25.203Z,98169.22
2023-03-16T13:21:03.028Z,98177.75
2023-03-16T13:23:58.229Z,98171.09
2023-03-16T13:26:43.443Z,98175.56
2023-03-16T13:29:25.699Z,98170.28
2023-03-16T13:31:58.327Z,98171.31
2023-03-16T13:34:33.883Z,98160.81
2023-03-16T13:37:04.410Z,98156.28
2023-03-16T13:39:35.837Z,98161.66
2023-03-16T13:42:21.322Z,98166.53
2023-03-16T13:44:52.238Z,98159.72
2023-03-16T13:47:22.920Z,98161.78
2023-03-16T13:49:58.392Z,98143.94
2023-03-16T13:52:32.400Z,98149.03
2023-03-16T13:55:05.160Z,98147.38
2023-03-16T13:57:41.211Z,98139.16
2023-03-16T14:00:21.250Z,98148.06
2023-03-16T14:02:57.334Z,98139.31
2023-03-16T14:05:31.370Z,98158.84
2023-03-16T14:08:02.555Z,98134.56
2023-03-16T14:10:37.250Z,98136.66
2023-03-16T14:13:27.644Z,98154.25
2023-03-16T14:16:00.308Z,98140.25
2023-03-16T14:18:37.801Z,98149.69
2023-03-16T14:21:12.176Z,98150.47
2023-03-16T14:23:48.253Z,98138.06
2023-03-16T14:26:22.226Z,98149.84
2023-03-16T14:29:12.673Z,98144.03
2023-03-16T14:31:43.256Z,98133.59
2023-03-16T14:34:30.238Z,98167.88
2023-03-16T14:37:12.304Z,98149.72
2023-03-16T14:39:43.281Z,98155.38
2023-03-16T14:42:23.631Z,98145.25
2023-03-16T14:44:56.643Z,98129.81
2023-03-16T14:47:32.147Z,98128.91
2023-03-16T14:50:10.872Z,98122.91
2023-03-16T14:52:41.839Z,98129.91
2023-03-16T14:55:19.523Z,98117.31
2023-03-16T14:57:51.369Z,98106.81
2023-03-16T15:00:26.598Z,98107.88
2023-03-16T15:03:08.369Z,98115.88
2023-03-16T15:05:42.270Z,98119.44
2023-03-16T15:08:20.166Z,98117.78
2023-03-16T15:10:50.906Z,98105.38
2023-03-16T15:13:35.000Z,98115.84
2023-03-16T15:16:08.954Z,98097.75
2023-03-16T15:18:41.950Z,98092.75
2023-03-16T15:21:15.570Z,98090.13
2023-03-16T15:23:47.176Z,98080.25
2023-03-16T15:26:24.943Z,98074.75
2023-03-16T15:28:55.870Z,98079.19
2023-03-16T15:31:29.167Z,98074.88
2023-03-16T15:33:59.909Z,98066.59
2023-03-16T15:36:30.432Z,98072.75
2023-03-16T15:39:02.176Z,98081.75
2023-03-16T15:41:45.248Z,98082.44
2023-03-16T15:44:17.977Z,98082.34
2023-03-16T15:46:51.513Z,98085.97
2023-03-16T15:49:22.204Z,98079.00
2023-03-16T15:51:52.683Z,98098.88
2023-03-16T15:54:23.339Z,98088.03
2023-03-16T15:56:54.893Z,98082.31
2023-03-16T15:59:27.273Z,98075.72
2023-03-16T16:02:01.169Z,98073.31
2023-03-16T16:04:31.785Z,98084.41
2023-03-16T16:07:03.047Z,98090.53
2023-03-16T16:09:37.787Z,98092.34
2023-03-16T16:12:09.479Z,98088.50
2023-03-16T16:14:40.578Z,98084.53
2023-03-16T16:17:36.453Z,98092.00
2023-03-16T16:20:23.563Z,98095.13
2023-03-16T16:22:55.216Z,98099.53
2023-03-16T16:25:28.562Z,98091.00
2023-03-16T16:27:59.352Z,98086.78
2023-03-16T16:30:33.947Z,98093.56
2023-03-16T16:33:07.500Z,98087.00
2023-03-16T16:35:38.646Z,98085.31
2023-03-16T16:38:10.109Z,98085.31
2023-03-16T16:40:45.891Z,98085.59
2023-03-16T16:43:30.385Z,98091.06
2023-03-16T16:46:00.950Z,98093.22
2023-03-16T16:48:41.121Z,98086.88
2023-03-16T16:51:20.389Z,98089.91
2023-03-16T16:53:51.181Z,98091.91
2023-03-16T16:56:29.499Z,98094.19
2023-03-16T16:59:03.957Z,98096.78
2023-03-16T17:01:36.382Z,98090.00
2023-03-16T17:04:16.655Z,98085.53
2023-03-16T17:06:48.114Z,98085.50
2023-03-16T17:09:18.406Z,98080.53
2023-03-16T17:11:49.114Z,98077.94
2023-03-16T17:14:21.975Z,98087.13
2023-03-16T17:16:53.543Z,98082.50
2023-03-16T17:19:28.771Z,98081.53
2023-03-16T17:22:01.544Z,98081.81
2023-03-16T17:24:32.141Z,98070.72
2023-03-16T17:27:04.675Z,98069.38
2023-03-16T17:29:36.986Z,98064.88
2023-03-16T17:32:22.522Z,98053.31
2023-03-16T17:34:55.506Z,98056.03
2023-03-16T17:37:26.051Z,98055.41
2023-03-16T17:39:58.164Z,98057.97
2023-03-16T17:42:31.126Z,98059.50
2023-03-16T17:45:02.077Z,98064.13
2023-03-16T17:47:39.658Z,98062.59
2023-03-16T17:50:25.170Z,98075.41
2023-03-16T17:52:56.278Z,98075.41
2023-03-16T17:55:27.260Z,98072.09
2023-03-16T17:57:59.305Z,98058.19
2023-03-16T18:00:34.314Z,98058.88
2023-03-16T18:03:07.159Z,98057.31
2023-03-16T18:05:40.137Z,98056.88
2023-03-16T18:08:20.576Z,98054.75
2023-03-16T18:10:56.003Z,98053.09
2023-03-16T18:13:29.714Z,98058.09
2023-03-16T18:16:00.904Z,98043.09
2023-03-16T18:18:35.169Z,98037.97
2023-03-16T18:21:08.985Z,98034.78
2023-03-16T18:23:39.807Z,98026.94
2023-03-16T18:26:11.562Z,98034.88
2023-03-16T18:28:41.963Z,98032.63
2023-03-16T18:31:23.961Z,98043.16
2023-03-16T18:33:57.702Z,98048.09
2023-03-16T18:36:35.041Z,98044.88
2023-03-16T18:39:11.629Z,98040.13
2023-03-16T18:41:42.133Z,98045.28
2023-03-16T18:44:21.584Z,98053.47
2023-03-16T18:46:53.156Z,98043.69
2023-03-16T18:49:28.166Z,98040.94
2023-03-16T18:52:01.317Z,98042.91
2023-03-16T18:54:35.676Z,98044.91
2023-03-16T18:57:06.620Z,98045.97
2023-03-16T18:59:37.258Z,98031.97
2023-03-16T19:02:08.741Z,98037.84
2023-03-16T19:04:39.995Z,98039.38
2023-03-16T19:07:27.549Z,98039.03
2023-03-16T19:09:58.117Z,98033.09
2023-03-16T19:12:28.491Z,98030.13
2023-03-16T19:14:58.834Z,98021.47
2023-03-16T19:17:29.184Z,98034.25
2023-03-16T19:19:59.803Z,98037.13
2023-03-16T19:22:32.879Z,98031.41
2023-03-16T19:25:03.543Z,98020.53
2023-03-16T19:27:39.748Z,98012.06
2023-03-16T19:30:23.245Z,98008.31
2023-03-16T19:32:54.028Z,98003.81
2023-03-16T19:35:36.291Z,98000.28
2023-03-16T19:38:18.247Z,98006.72
2023-03-16T19:40:50.973Z,98003.19
2023-03-16T19:43:23.603Z,98003.75
2023-03-16T19:45:55.083Z,98000.66
2023-03-16T19:48:34.273Z,98011.28
2023-03-16T19:51:06.249Z,98018.88
2023-03-16T19:53:39.266Z,98007.13
2023-03-16T19:56:15.484Z,98015.47
2023-03-16T19:58:48.883Z,98019.31
2023-03-16T20:01:23.504Z,98026.38
2023-03-16T20:03:54.620Z,98027.81
2023-03-16T20:06:27.254Z,98022.31
2023-03-16T20:09:00.141Z,98018.91
2023-03-16T20:11:32.692Z,98016.69
2023-03-16T20:14:04.813Z,98014.47
2023-03-16T20:16:37.870Z,98005.78
2023-03-16T20:19:16.416Z,98015.59
2023-03-16T20:21:46.720Z,98009.13
2023-03-16T20:24:24.569Z,98015.81
2023-03-16T20:26:56.804Z,98009.88
2023-03-16T20:29:32.305Z,98007.13
2023-03-16T20:32:06.997Z,98012.06
2023-03-16T20:34:37.559Z,98007.44
2023-03-16T20:37:24.619Z,98004.72
2023-03-16T20:39:59.952Z,98007.00
2023-03-16T20:42:34.699Z,98005.16
2023-03-16T20:45:05.319Z,97993.38
2023-03-16T20:47:35.828Z,97985.69
2023-03-16T20:50:06.388Z,98003.94
2023-03-16T20:52:37.067Z,97986.66
2023-03-16T20:55:11.921Z,97966.06
2023-03-16T20:57:43.605Z,97977.22
2023-03-16T21:00:31.608Z,97967.63
2023-03-16T21:03:02.701Z,97960.56
2023-03-16T21:05:33.299Z,97957.25
2023-03-16T21:08:03.764Z,97960.00
2023-03-16T21:10:37.208Z,97957.50
2023-03-16T21:13:08.281Z,97963.22
2023-03-16T21:15:39.218Z,97960.47
2023-03-16T21:18:13.686Z,97956.06
2023-03-16T21:20:44.104Z,97952.78
2023-03-16T21:23:17.999Z,97953.22
2023-03-16T21:25:57.062Z,97961.25
2023-03-16T21:28:29.229Z,97959.50
2023-03-16T21:31:01.319Z,97948.25
2023-03-16T21:33:35.058Z,97944.41
2023-03-16T21:36:08.333Z,97942.09
2023-03-16T21:38:38.718Z,97942.97
2023-03-16T21:41:11.806Z,97936.59
2023-03-16T21:43:43.067Z,97946.94
2023-03-16T21:46:18.457Z,97943.63
2023-03-16T21:48:52.269Z,97944.41
2023-03-16T21:51:25.471Z,97934.16
2023-03-16T21:53:56.317Z,97949.56
2023-03-16T21:56:29.503Z,97932.50
2023-03-16T21:58:59.942Z,97928.88
2023-03-16T22:01:34.429Z,97923.72
2023-03-16T22:04:08.852Z,97919.41
2023-03-16T22:06:39.646Z,97919.28
2023-03-16T22:09:20.126Z,97908.19
2023-03-16T22:11:56.666Z,97908.63
2023-03-16T22:14:27.344Z,97904.66
2023-03-16T22:16:58.363Z,97905.31
2023-03-16T22:19:29.992Z,97893.44
2023-03-16T22:22:03.659Z,97894.09
2023-03-16T22:24:36.009Z,97886.91
2023-03-16T22:27:17.162Z,97876.38
2023-03-16T22:29:51.286Z,97879.00
2023-03-16T22:32:24.990Z,97882.19
2023-03-16T22:34:59.042Z,97889.56
2023-03-16T22:37:31.705Z,97884.72
2023-03-16T22:40:03.412Z,97894.44
2023-03-16T22:42:40.245Z,97899.16
2023-03-16T22:45:21.033Z,97892.47
2023-03-16T22:47:51.398Z,97889.91
2023-03-16T22:50:24.408Z,97876.94
2023-03-16T22:52:59.856Z,97873.91
2023-03-16T22:55:34.467Z,97870.72
2023-03-16T22:58:15.208Z,97871.09
2023-03-16T23:00:45.627Z,97869.22
2023-03-16T23:03:21.477Z,97873.06
2023-03-16T23:05:52.271Z,97869.13
2023-03-16T23:08:26.785Z,97875.38
2023-03-16T23:10:57.260Z,97870.75
2023-03-16T23:13:30.223Z,97863.41
2023-03-16T23:16:03.058Z,97865.94
2023-03-16T23:18:33.537Z,97863.28
2023-03-16T23:21:04.035Z,97869.22
2023-03-16T23:23:34.418Z,97859.97
2023-03-16T23:26:04.738Z,97860.09
2023-03-16T23:28:37.853Z,97861.94
2023-03-16T23:31:08.994Z,97854.78
2023-03-16T23:33:39.090Z,97854.34
2023-03-16T23:36:17.026Z,97852.47
2023-03-16T23:38:47.858Z,97835.72
2023-03-16T23:41:21.691Z,97838.13
2023-03-16T23:43:56.145Z,97842.13
2023-03-16T23:46:28.257Z,97829.59
2023-03-16T23:49:01.881Z,97835.38
2023-03-16T23:51:34.611Z,97831.63
2023-03-16T23:54:04.984Z,97822.41
2023-03-16T23:56:35.256Z,97829.69
2023-03-16T23:59:08.328Z,97824.53
